Time;durP1;ratioP1;P1;durP2;ratioP2;P2;SDS_P1;SDS_P2;PMS_P1;PMS_P2;Temp;Humidity;BMP_temperature;BMP_pressure;BME280_temperature;BME280_humidity;BME280_pressure;Samples;Min_cycle;Max_cycle;Signal;HPM_P1;HPM_P2
2021/01/25 00:00:42;;;;;;;6.43;4.57;;;4.80;99.90;;;;;;5061818;28;20040;-75
2021/01/25 00:03:08;;;;;;;4.38;3.10;;;4.80;99.90;;;;;;5071135;28;20028;-75
2021/01/25 00:05:36;;;;;;;2.90;2.42;;;4.80;99.90;;;;;;5069100;28;20013;-74
2021/01/25 00:08:02;;;;;;;9.85;6.30;;;4.70;99.90;;;;;;5072549;28;20025;-76
2021/01/25 00:10:28;;;;;;;50.78;36.00;;;4.70;99.90;;;;;;5066027;28;20013;-73
2021/01/25 00:12:53;;;;;;;33.08;23.02;;;4.60;99.90;;;;;;5064548;28;20056;-72
2021/01/25 00:15:19;;;;;;;7.35;5.63;;;4.50;99.90;;;;;;5073885;28;20032;-71
2021/01/25 00:17:45;;;;;;;4.70;1.77;;;4.40;99.90;;;;;;5063446;28;20029;-72
2021/01/25 00:20:12;;;;;;;1.80;1.52;;;4.60;99.90;;;;;;5065639;28;20498;-72
2021/01/25 00:22:38;;;;;;;2.33;1.13;;;4.70;99.90;;;;;;5064711;28;20029;-72
2021/01/25 00:25:04;;;;;;;2.05;0.98;;;4.80;99.90;;;;;;5074384;28;20528;-72
2021/01/25 00:27:30;;;;;;;1.27;1.00;;;4.90;99.90;;;;;;5064593;28;20020;-72
2021/01/25 00:29:56;;;;;;;1.45;1.00;;;5.00;99.90;;;;;;5054653;28;20024;-72
2021/01/25 00:32:22;;;;;;;1.40;1.30;;;5.00;99.90;;;;;;5068662;28;20020;-72
2021/01/25 00:34:48;;;;;;;2.60;1.08;;;5.10;99.90;;;;;;5072157;28;20112;-72
2021/01/25 00:37:14;;;;;;;1.15;0.82;;;5.10;99.90;;;;;;5071949;28;20034;-72
2021/01/25 00:39:40;;;;;;;1.20;1.10;;;5.10;99.90;;;;;;5060978;28;20017;-73
2021/01/25 00:42:05;;;;;;;1.65;1.20;;;5.00;99.90;;;;;;5065181;28;20028;-74
2021/01/25 00:44:31;;;;;;;1.02;1.00;;;5.00;99.90;;;;;;5063394;28;20052;-77
2021/01/25 00:46:57;;;;;;;1.67;1.27;;;5.00;99.90;;;;;;5072300;28;20024;-75
2021/01/25 00:49:23;;;;;;;1.55;1.33;;;5.00;99.90;;;;;;5073220;28;20021;-72
2021/01/25 00:51:49;;;;;;;1.33;1.17;;;5.10;99.90;;;;;;5072014;28;20021;-72
2021/01/25 00:54:14;;;;;;;1.13;1.02;;;5.10;99.90;;;;;;5064424;28;20064;-73
2021/01/25 00:56:40;;;;;;;1.15;0.85;;;5.10;99.90;;;;;;5071341;28;20044;-73
2021/01/25 00:59:06;;;;;;;3.78;1.38;;;5.20;99.90;;;;;;5063769;28;20393;-74
2021/01/25 01:01:32;;;;;;;2.55;1.20;;;5.10;99.90;;;;;;5067255;28;20028;-75
2021/01/25 01:03:58;;;;;;;1.23;0.90;;;5.10;99.90;;;;;;5064973;28;20123;-72
2021/01/25 01:06:24;;;;;;;1.42;1.00;;;5.10;99.90;;;;;;5073102;28;20070;-74
2021/01/25 01:08:50;;;;;;;1.02;0.90;;;5.00;99.90;;;;;;5064055;28;20024;-76
2021/01/25 01:11:16;;;;;;;1.95;1.23;;;4.90;99.90;;;;;;5072829;28;20016;-72
2021/01/25 01:13:41;;;;;;;1.13;1.02;;;4.90;99.90;;;;;;5055251;28;20523;-73
2021/01/25 01:16:07;;;;;;;1.30;1.20;;;4.90;99.90;;;;;;5064218;28;20486;-73
2021/01/25 01:18:36;;;;;;;2.63;1.23;;;5.00;99.90;;;;;;5064095;28;20025;-73
2021/01/25 01:21:03;;;;;;;1.27;0.90;;;5.00;99.90;;;;;;5053107;28;20095;-75
2021/01/25 01:23:29;;;;;;;1.65;0.95;;;5.00;99.90;;;;;;5056627;28;20506;-71
2021/01/25 01:25:55;;;;;;;1.65;1.20;;;5.10;99.90;;;;;;5065079;28;20016;-72
2021/01/25 01:28:21;;;;;;;1.30;1.08;;;5.10;99.90;;;;;;5070898;28;20017;-74
2021/01/25 01:30:47;;;;;;;0.60;0.60;;;5.20;99.90;;;;;;5062233;28;20071;-74
2021/01/25 01:33:12;;;;;;;1.27;1.17;;;5.30;99.90;;;;;;5053721;28;20557;-75
2021/01/25 01:35:38;;;;;;;1.10;1.10;;;5.30;99.90;;;;;;5069158;28;20025;-73
2021/01/25 01:38:05;;;;;;;3.88;1.33;;;5.30;99.90;;;;;;5066280;28;20029;-73
2021/01/25 01:40:30;;;;;;;1.05;0.80;;;5.30;99.90;;;;;;5065018;28;20017;-73
2021/01/25 01:42:56;;;;;;;1.83;0.70;;;5.30;99.90;;;;;;5058002;28;20027;-75
2021/01/25 01:45:22;;;;;;;1.13;1.02;;;5.20;99.90;;;;;;5067064;28;20045;-71
2021/01/25 01:47:48;;;;;;;0.80;0.80;;;5.10;99.90;;;;;;5071851;28;20112;-71
2021/01/25 01:50:14;;;;;;;0.90;0.80;;;5.10;99.90;;;;;;5071990;28;20421;-72
2021/01/25 01:52:40;;;;;;;1.05;1.02;;;5.00;99.90;;;;;;5054664;28;20099;-72
2021/01/25 01:55:07;;;;;;;0.85;0.70;;;5.00;99.90;;;;;;5058660;28;20028;-83
2021/01/25 01:57:35;;;;;;;0.80;0.80;;;5.00;99.90;;;;;;5061685;28;20033;-77
2021/01/25 02:00:03;;;;;;;0.70;0.70;;;5.00;99.90;;;;;;5071020;28;20012;-72
2021/01/25 02:02:29;;;;;;;0.95;0.85;;;5.10;99.90;;;;;;5067554;28;20115;-72
2021/01/25 02:04:56;;;;;;;1.20;1.10;;;5.00;99.90;;;;;;5072695;28;20044;-72
2021/01/25 02:07:23;;;;;;;1.92;0.82;;;5.00;99.90;;;;;;5061868;28;20082;-75
2021/01/25 02:09:50;;;;;;;1.67;1.02;;;5.00;99.90;;;;;;5066720;28;20025;-72
2021/01/25 02:12:19;;;;;;;0.80;0.80;;;4.90;99.90;;;;;;5070831;28;20111;-74
2021/01/25 02:14:46;;;;;;;0.88;0.70;;;5.00;99.90;;;;;;5058396;28;20115;-72
2021/01/25 02:17:16;;;;;;;1.27;1.23;;;5.00;99.90;;;;;;5058355;28;20667;-71
2021/01/25 02:20:04;;;;;;;1.48;1.08;;;4.90;99.90;;;;;;5062041;28;20021;-73
2021/01/25 02:22:35;;;;;;;1.42;1.23;;;5.00;99.90;;;;;;5073013;28;20039;-72
2021/01/25 02:25:17;;;;;;;1.88;1.10;;;4.90;99.90;;;;;;5066843;28;20019;-71
2021/01/25 02:27:44;;;;;;;1.08;0.93;;;5.00;99.90;;;;;;5072087;28;20028;-73
2021/01/25 02:30:15;;;;;;;1.27;1.17;;;5.00;99.90;;;;;;5061119;28;20380;-75
2021/01/25 02:32:42;;;;;;;1.42;1.08;;;5.10;99.90;;;;;;5070054;28;20116;-76
2021/01/25 02:35:12;;;;;;;1.35;1.10;;;5.00;99.90;;;;;;5057572;28;20090;-71
2021/01/25 02:37:40;;;;;;;0.55;0.55;;;5.10;99.90;;;;;;5063109;28;20394;-71
2021/01/25 02:40:07;;;;;;;1.60;1.27;;;5.10;99.90;;;;;;5071450;28;20017;-72
2021/01/25 02:42:35;;;;;;;1.40;0.93;;;5.00;99.90;;;;;;5065187;28;20024;-76
2021/01/25 02:45:02;;;;;;;0.77;0.77;;;5.00;99.90;;;;;;5074515;28;20390;-72
2021/01/25 02:47:29;;;;;;;1.45;1.15;;;5.00;99.90;;;;;;5060142;28;20094;-72
2021/01/25 02:49:55;;;;;;;1.02;0.85;;;5.00;99.90;;;;;;5064417;28;20131;-74
2021/01/25 02:52:27;;;;;;;1.08;0.75;;;4.90;99.90;;;;;;5055712;28;20478;-74
2021/01/25 02:54:54;;;;;;;;;;;4.90;99.90;;;;;;5075538;28;20526;-74
2021/01/25 02:57:21;;;;;;;1.13;0.90;;;4.90;99.90;;;;;;5061504;28;19908;-74
2021/01/25 02:59:48;;;;;;;3.53;1.33;;;4.80;99.90;;;;;;5055591;28;20443;-73
2021/01/25 03:02:15;;;;;;;0.85;0.82;;;4.90;99.90;;;;;;5065892;28;20149;-76
2021/01/25 03:04:42;;;;;;;1.90;1.00;;;4.90;99.90;;;;;;5066995;28;20458;-72
2021/01/25 03:07:08;;;;;;;1.70;1.42;;;4.90;99.90;;;;;;5068386;28;20386;-76
2021/01/25 03:09:34;;;;;;;1.13;0.98;;;5.00;99.90;;;;;;5063004;28;20424;-72
2021/01/25 03:12:05;;;;;;;1.85;1.40;;;5.00;99.90;;;;;;5066320;28;20429;-72
2021/01/25 03:14:31;;;;;;;1.15;1.00;;;5.00;99.90;;;;;;5067341;28;20474;-72
2021/01/25 03:16:58;;;;;;;1.20;1.10;;;5.00;99.90;;;;;;5061574;28;20052;-75
2021/01/25 03:19:24;;;;;;;2.10;1.73;;;4.90;99.90;;;;;;5055083;28;20464;-73
2021/01/25 03:21:53;;;;;;;4.45;2.78;;;4.90;99.90;;;;;;5055466;28;20051;-73
2021/01/25 03:24:19;;;;;;;5.30;3.45;;;4.90;99.90;;;;;;5066766;28;20029;-72
2021/01/25 03:26:46;;;;;;;4.72;2.28;;;4.90;99.90;;;;;;5063170;28;20028;-71
2021/01/25 03:29:12;;;;;;;6.80;3.58;;;4.90;99.90;;;;;;5068219;28;20467;-77
2021/01/25 03:31:38;;;;;;;4.25;2.90;;;4.80;99.90;;;;;;5074960;28;20051;-77
2021/01/25 03:34:06;;;;;;;4.05;3.03;;;4.80;99.90;;;;;;5064321;28;20066;-73
2021/01/25 03:36:32;;;;;;;4.03;2.67;;;4.80;99.90;;;;;;5064308;28;20028;-72
2021/01/25 03:38:58;;;;;;;3.38;2.45;;;4.70;99.90;;;;;;5064598;28;20024;-71
2021/01/25 03:41:24;;;;;;;10.63;2.38;;;4.70;99.90;;;;;;5072124;28;20040;-71
2021/01/25 03:43:50;;;;;;;3.65;2.45;;;4.70;99.90;;;;;;5073764;28;20024;-75
2021/01/25 03:46:16;;;;;;;2.63;1.95;;;4.70;99.90;;;;;;5061432;28;20088;-72
2021/01/25 03:48:42;;;;;;;3.83;1.88;;;4.70;99.90;;;;;;5064138;28;20071;-73
2021/01/25 03:51:08;;;;;;;1.45;1.20;;;4.60;99.90;;;;;;5060177;28;20030;-72
2021/01/25 03:53:34;;;;;;;1.52;1.42;;;4.60;99.90;;;;;;5070332;28;20024;-72
2021/01/25 03:56:00;;;;;;;3.38;1.60;;;4.60;99.90;;;;;;5066793;28;20104;-72
2021/01/25 03:58:26;;;;;;;2.53;1.73;;;4.60;99.90;;;;;;5062903;28;20035;-71
2021/01/25 04:00:52;;;;;;;4.55;2.38;;;4.60;99.90;;;;;;5068738;28;20017;-76
2021/01/25 04:03:18;;;;;;;4.13;2.75;;;4.70;99.90;;;;;;5065002;28;20037;-72
2021/01/25 04:05:45;;;;;;;2.80;2.28;;;4.70;99.90;;;;;;5064497;28;20393;-72
2021/01/25 04:08:10;;;;;;;5.20;2.53;;;4.60;99.90;;;;;;5068742;28;20391;-72
2021/01/25 04:10:36;;;;;;;3.85;2.22;;;4.60;99.90;;;;;;5070473;28;20033;-72
2021/01/25 04:13:03;;;;;;;4.88;2.35;;;4.50;99.90;;;;;;5065528;28;20033;-74
2021/01/25 04:15:28;;;;;;;2.35;1.88;;;4.40;99.90;;;;;;5072455;28;20017;-72
2021/01/25 04:17:55;;;;;;;4.95;1.85;;;4.30;99.90;;;;;;5073118;28;20107;-74
2021/01/25 04:20:21;;;;;;;3.63;1.00;;;4.20;99.90;;;;;;5073003;28;20125;-75
2021/01/25 04:22:46;;;;;;;1.75;1.42;;;4.10;99.90;;;;;;5058844;28;20475;-75
2021/01/25 04:25:13;;;;;;;1.20;1.10;;;4.10;99.90;;;;;;5067361;28;20054;-72
2021/01/25 04:27:39;;;;;;;3.38;1.42;;;4.10;99.90;;;;;;5065000;28;20479;-76
2021/01/25 04:30:07;;;;;;;0.75;0.75;;;4.20;99.90;;;;;;5073457;28;20092;-72
2021/01/25 04:32:35;;;;;;;0.98;0.82;;;4.20;99.90;;;;;;5071798;28;20062;-72
2021/01/25 04:35:03;;;;;;;1.63;1.35;;;4.30;99.90;;;;;;5065242;28;20527;-72
2021/01/25 04:37:29;;;;;;;1.83;1.00;;;4.30;99.90;;;;;;5065308;28;20049;-71
2021/01/25 04:39:55;;;;;;;1.58;1.02;;;4.40;99.90;;;;;;5061669;28;20025;-72
2021/01/25 04:42:22;;;;;;;1.13;1.02;;;4.60;99.90;;;;;;5078905;28;20028;-72
2021/01/25 04:44:48;;;;;;;3.78;1.15;;;4.60;99.90;;;;;;5064645;28;20032;-72
2021/01/25 04:47:14;;;;;;;2.75;2.00;;;4.60;99.90;;;;;;5054639;28;20023;-76
2021/01/25 04:49:42;;;;;;;1.13;0.95;;;4.70;99.90;;;;;;5063348;28;20115;-76
2021/01/25 04:52:10;;;;;;;0.55;0.52;;;4.70;99.90;;;;;;5068160;28;20017;-76
2021/01/25 04:54:37;;;;;;;1.02;0.80;;;4.70;99.90;;;;;;5061433;28;20016;-71
2021/01/25 04:57:03;;;;;;;2.05;1.48;;;4.80;99.90;;;;;;5058100;28;20029;-71
2021/01/25 04:59:29;;;;;;;1.33;1.10;;;4.70;99.90;;;;;;5056794;28;20033;-75
2021/01/25 05:01:56;;;;;;;1.30;0.90;;;4.80;99.90;;;;;;5061487;28;20044;-76
2021/01/25 05:04:22;;;;;;;2.47;1.20;;;4.90;99.90;;;;;;5061115;28;20017;-72
2021/01/25 05:06:48;;;;;;;1.33;1.05;;;5.00;99.90;;;;;;5061293;28;20554;-72
2021/01/25 05:09:13;;;;;;;2.20;1.10;;;5.10;99.90;;;;;;5063322;28;20059;-76
2021/01/25 05:11:39;;;;;;;0.95;0.80;;;5.30;99.90;;;;;;5053247;28;20024;-75
2021/01/25 05:14:06;;;;;;;1.67;1.58;;;5.40;99.90;;;;;;5063462;28;20024;-75
2021/01/25 05:16:33;;;;;;;1.27;0.70;;;5.50;99.90;;;;;;5064689;28;20162;-72
2021/01/25 05:19:02;;;;;;;1.95;0.70;;;5.60;99.90;;;;;;5064151;28;20024;-72
2021/01/25 05:21:35;;;;;;;0.57;0.57;;;5.60;99.90;;;;;;5070861;28;20048;-76
2021/01/25 05:24:05;;;;;;;0.60;0.60;;;5.60;99.90;;;;;;5065756;28;20381;-71
2021/01/25 05:26:31;;;;;;;0.63;0.63;;;5.60;99.90;;;;;;5064111;28;20067;-72
2021/01/25 05:28:57;;;;;;;0.80;0.75;;;5.60;99.90;;;;;;5060792;28;20025;-71
2021/01/25 05:31:25;;;;;;;1.27;1.05;;;5.60;99.90;;;;;;5051610;28;20056;-72
2021/01/25 05:33:52;;;;;;;1.42;1.00;;;5.50;99.90;;;;;;5064510;28;20482;-72
2021/01/25 05:36:25;;;;;;;1.23;0.90;;;5.50;99.90;;;;;;5064686;28;20048;-77
2021/01/25 05:38:52;;;;;;;0.73;0.73;;;5.50;99.90;;;;;;5064761;28;20032;-72
2021/01/25 05:41:19;;;;;;;3.35;1.02;;;5.50;99.90;;;;;;5071319;28;20020;-71
2021/01/25 05:43:46;;;;;;;0.80;0.80;;;5.50;99.90;;;;;;5070161;28;20024;-75
2021/01/25 05:46:15;;;;;;;1.08;0.98;;;5.60;99.90;;;;;;5073167;28;20493;-72
2021/01/25 05:48:42;;;;;;;0.60;0.60;;;5.50;99.90;;;;;;5070187;28;20060;-79
2021/01/25 05:51:18;;;;;;;1.63;1.10;;;5.60;99.90;;;;;;5050992;28;20029;-72
2021/01/25 05:53:46;;;;;;;0.75;0.70;;;5.50;99.90;;;;;;5060868;28;20509;-72
2021/01/25 05:56:13;;;;;;;1.90;0.93;;;5.50;99.90;;;;;;5062227;28;20024;-71
2021/01/25 05:58:40;;;;;;;0.85;0.60;;;5.50;99.90;;;;;;5060682;28;20103;-75
2021/01/25 06:01:07;;;;;;;1.45;0.90;;;5.50;99.90;;;;;;5070658;28;20070;-73
2021/01/25 06:03:36;;;;;;;1.98;1.02;;;5.50;99.90;;;;;;5070342;28;20569;-71
2021/01/25 06:06:06;;;;;;;1.02;0.95;;;5.40;99.90;;;;;;5067991;28;20021;-72
2021/01/25 06:08:48;;;;;;;1.15;1.00;;;5.40;99.90;;;;;;5065469;28;20025;-73
2021/01/25 06:11:19;;;;;;;2.05;1.02;;;5.40;99.90;;;;;;5070058;28;20020;-76
2021/01/25 06:13:51;;;;;;;3.08;1.63;;;5.40;99.90;;;;;;5068184;28;20402;-72
2021/01/25 06:16:20;;;;;;;1.77;1.20;;;5.30;99.90;;;;;;5059071;28;20029;-72
2021/01/25 06:18:46;;;;;;;2.70;0.77;;;5.30;99.90;;;;;;5061650;28;20475;-75
2021/01/25 06:21:17;;;;;;;2.17;0.98;;;5.40;99.90;;;;;;5069128;28;20043;-75
2021/01/25 06:23:44;;;;;;;1.45;1.15;;;5.40;99.90;;;;;;5069799;28;20142;-72
2021/01/25 06:26:11;;;;;;;1.55;1.10;;;5.40;99.90;;;;;;5065999;28;20084;-72
2021/01/25 06:28:41;;;;;;;1.20;1.00;;;5.50;99.90;;;;;;5075394;28;20021;-72
2021/01/25 06:31:09;;;;;;;0.98;0.93;;;5.50;99.90;;;;;;5070079;28;20032;-74
2021/01/25 06:33:38;;;;;;;1.75;1.02;;;5.40;99.90;;;;;;5059589;28;20099;-72
2021/01/25 06:36:09;;;;;;;1.40;1.20;;;5.40;99.90;;;;;;5068307;28;20055;-71
2021/01/25 06:38:36;;;;;;;2.50;1.63;;;5.50;99.90;;;;;;5078995;28;20102;-71
2021/01/25 06:41:10;;;;;;;2.00;1.80;;;5.40;99.90;;;;;;5078180;28;20012;-71
2021/01/25 06:43:40;;;;;;;1.70;1.60;;;5.40;99.90;;;;;;5070159;28;20024;-77
2021/01/25 06:46:09;;;;;;;3.42;1.75;;;5.40;99.90;;;;;;5080457;28;20386;-77
2021/01/25 06:48:36;;;;;;;5.35;1.98;;;5.40;99.90;;;;;;5066356;28;20025;-77
2021/01/25 06:51:06;;;;;;;3.83;1.70;;;5.40;99.90;;;;;;5093846;28;20092;-80
2021/01/25 06:53:32;;;;;;;4.32;1.63;;;5.50;99.90;;;;;;5083692;28;20027;-77
2021/01/25 06:55:59;;;;;;;2.22;1.83;;;5.40;99.90;;;;;;5093213;28;20382;-79
2021/01/25 06:58:29;;;;;;;2.05;1.65;;;5.40;99.90;;;;;;5091487;28;20024;-82
2021/01/25 07:00:55;;;;;;;5.57;1.60;;;5.40;99.90;;;;;;5112089;28;20005;-79
2021/01/25 07:03:22;;;;;;;5.82;1.38;;;5.40;99.90;;;;;;5099583;28;20036;-81
2021/01/25 07:05:51;;;;;;;1.88;1.35;;;5.40;99.90;;;;;;5087438;28;20104;-76
2021/01/25 07:08:26;;;;;;;5.00;1.80;;;5.40;99.90;;;;;;5063511;28;20104;-78
2021/01/25 07:10:56;;;;;;;8.60;5.15;;;5.40;99.90;;;;;;5075990;28;20028;-78
2021/01/25 07:13:24;;;;;;;1.50;1.40;;;5.40;99.90;;;;;;5068324;28;20033;-76
2021/01/25 07:15:51;;;;;;;1.27;1.17;;;5.40;99.90;;;;;;5072602;28;20090;-76
2021/01/25 07:18:19;;;;;;;3.42;1.50;;;5.50;99.90;;;;;;5077398;28;20029;-77
2021/01/25 07:20:53;;;;;;;1.60;0.80;;;5.60;99.90;;;;;;5078692;28;20036;-76
2021/01/25 07:23:20;;;;;;;1.48;1.35;;;5.70;99.90;;;;;;5107252;28;20024;-75
2021/01/25 07:25:53;;;;;;;2.88;1.30;;;5.80;99.90;;;;;;5074749;28;20021;-76
2021/01/25 07:28:19;;;;;;;2.40;1.38;;;5.90;99.90;;;;;;5078049;28;20048;-76
2021/01/25 07:30:45;;;;;;;2.22;1.17;;;6.00;99.90;;;;;;5097163;28;20066;-77
2021/01/25 07:33:11;;;;;;;1.45;1.17;;;6.30;99.90;;;;;;5101360;28;20042;-75
2021/01/25 07:35:37;;;;;;;5.50;1.48;;;6.40;99.90;;;;;;5101492;28;20017;-78
2021/01/25 07:38:03;;;;;;;4.43;1.42;;;6.50;99.90;;;;;;5095559;28;20032;-75
2021/01/25 07:40:29;;;;;;;2.22;1.27;;;6.50;99.90;;;;;;5074795;28;20117;-75
2021/01/25 07:42:54;;;;;;;4.78;2.17;;;6.40;99.90;;;;;;5076506;28;20487;-74
2021/01/25 07:45:24;;;;;;;3.25;2.65;;;6.40;99.90;;;;;;5078514;28;20024;-76
2021/01/25 07:47:51;;;;;;;2.67;1.90;;;6.50;99.90;;;;;;5075155;28;20056;-76
2021/01/25 07:50:17;;;;;;;2.47;2.05;;;6.60;99.90;;;;;;5085532;28;20035;-76
2021/01/25 07:52:43;;;;;;;3.53;1.60;;;6.70;99.90;;;;;;5075995;28;20024;-76
2021/01/25 07:55:14;;;;;;;2.83;1.75;;;6.80;99.90;;;;;;5063694;28;20029;-76
2021/01/25 07:57:41;;;;;;;2.45;2.15;;;6.80;99.90;;;;;;5079515;28;20024;-76
2021/01/25 08:00:33;;;;;;;3.08;2.03;;;6.70;99.90;;;;;;5082495;28;20020;-77
2021/01/25 08:03:05;;;;;;;0.95;0.93;;;6.70;99.90;;;;;;5085237;28;20020;-77
2021/01/25 08:05:32;;;;;;;;;;;6.70;99.90;;;;;;5090225;28;20044;-76
2021/01/25 08:07:58;;;;;;;1.50;1.40;;;6.80;99.90;;;;;;5075426;28;19910;-76
2021/01/25 08:10:24;;;;;;;2.15;1.13;;;6.80;99.90;;;;;;5076804;28;20025;-76
2021/01/25 08:12:51;;;;;;;3.72;1.67;;;6.70;99.90;;;;;;5075321;28;20032;-79
2021/01/25 08:15:27;;;;;;;1.65;1.52;;;6.70;99.90;;;;;;5094158;28;20012;-78
2021/01/25 08:18:03;;;;;;;1.20;1.10;;;6.70;99.90;;;;;;5092904;28;20030;-78
2021/01/25 08:20:33;;;;;;;5.00;2.00;;;6.70;99.90;;;;;;5080162;28;20032;-80
2021/01/25 08:23:20;;;;;;;3.20;2.03;;;6.80;99.90;;;;;;5090385;28;20024;-78
2021/01/25 08:25:57;;;;;;;1.23;1.05;;;6.80;99.90;;;;;;5080699;28;20019;-79
2021/01/25 08:28:28;;;;;;;2.20;1.35;;;6.80;99.90;;;;;;5102366;28;20127;-76
2021/01/25 08:30:54;;;;;;;3.00;2.80;;;6.70;99.90;;;;;;5098057;28;20095;-76
2021/01/25 08:33:33;;;;;;;5.13;1.15;;;6.80;99.90;;;;;;5094413;28;20084;-76
2021/01/25 08:36:04;;;;;;;1.52;1.00;;;6.80;99.90;;;;;;5091524;28;20039;-76
2021/01/25 08:38:37;;;;;;;2.88;1.10;;;6.90;99.90;;;;;;5082191;28;20029;-76
2021/01/25 08:41:15;;;;;;;1.30;1.20;;;7.00;99.90;;;;;;5069644;28;20029;-75
2021/01/25 08:43:51;;;;;;;1.98;1.02;;;7.00;99.90;;;;;;5081542;28;20036;-75
2021/01/25 08:46:21;;;;;;;0.85;0.85;;;7.10;99.90;;;;;;5086419;28;20020;-75
2021/01/25 08:48:47;;;;;;;1.55;1.27;;;7.10;99.90;;;;;;5085632;28;20021;-74
2021/01/25 08:51:16;;;;;;;1.52;1.02;;;7.20;99.90;;;;;;5085335;28;20028;-75
2021/01/25 08:53:45;;;;;;;4.20;1.42;;;7.30;99.90;;;;;;5084314;28;20028;-75
2021/01/25 08:56:16;;;;;;;3.55;1.83;;;7.30;99.90;;;;;;5084875;28;20028;-74
2021/01/25 08:58:43;;;;;;;4.20;1.33;;;7.40;99.90;;;;;;5078832;28;20029;-74
2021/01/25 09:01:24;;;;;;;1.98;0.90;;;7.60;99.90;;;;;;5081542;28;20031;-74
2021/01/25 09:03:50;;;;;;;2.50;1.45;;;7.60;99.90;;;;;;5084039;28;20032;-74
2021/01/25 09:06:16;;;;;;;2.35;1.10;;;7.50;99.90;;;;;;5085941;28;20020;-75
2021/01/25 09:08:42;;;;;;;1.27;1.17;;;7.60;99.90;;;;;;5089280;28;20032;-75
2021/01/25 09:11:08;;;;;;;1.70;1.60;;;7.70;99.90;;;;;;5074723;28;20009;-75
2021/01/25 09:13:34;;;;;;;1.40;0.93;;;7.70;99.90;;;;;;5078225;28;20022;-75
2021/01/25 09:16:00;;;;;;;1.42;1.10;;;7.70;99.90;;;;;;5077899;28;20031;-75
2021/01/25 09:18:26;;;;;;;1.90;1.27;;;7.70;99.90;;;;;;5080087;28;20028;-75
2021/01/25 09:20:52;;;;;;;3.70;1.10;;;7.70;99.90;;;;;;5077360;28;20096;-75
2021/01/25 09:23:18;;;;;;;1.60;0.95;;;7.60;99.90;;;;;;5081615;28;20048;-75
2021/01/25 09:25:46;;;;;;;1.55;1.45;;;7.60;99.90;;;;;;5085013;28;20032;-74
2021/01/25 09:28:13;;;;;;;1.80;1.50;;;7.50;99.90;;;;;;5081082;28;20099;-75
2021/01/25 09:30:39;;;;;;;1.27;1.10;;;7.60;99.90;;;;;;5080336;28;20066;-75
2021/01/25 09:33:06;;;;;;;1.40;1.30;;;7.50;99.90;;;;;;5090046;28;20025;-75
2021/01/25 09:35:33;;;;;;;1.45;1.30;;;7.50;99.90;;;;;;5085970;28;20020;-75
2021/01/25 09:38:00;;;;;;;2.42;1.17;;;7.60;99.90;;;;;;5085352;28;20017;-75
2021/01/25 09:40:26;;;;;;;3.45;1.95;;;7.70;99.90;;;;;;5087623;28;20059;-75
2021/01/25 09:42:52;;;;;;;3.13;1.40;;;7.70;99.90;;;;;;5082534;28;20036;-75
2021/01/25 09:45:20;;;;;;;5.38;1.27;;;7.70;99.90;;;;;;5085740;28;20025;-74
2021/01/25 09:47:47;;;;;;;1.90;1.75;;;7.70;99.90;;;;;;5084542;28;20080;-74
2021/01/25 09:50:15;;;;;;;1.73;1.40;;;7.70;99.90;;;;;;5087482;28;20033;-75
2021/01/25 09:52:45;;;;;;;1.33;1.20;;;7.70;99.90;;;;;;5090408;28;20169;-75
2021/01/25 09:55:16;;;;;;;0.80;0.80;;;7.80;99.90;;;;;;5085618;28;20163;-75
2021/01/25 09:57:43;;;;;;;1.67;1.23;;;7.80;99.90;;;;;;5094172;28;20047;-75
2021/01/25 10:00:11;;;;;;;2.13;1.70;;;7.90;99.90;;;;;;5087105;28;20039;-74
2021/01/25 10:02:37;;;;;;;2.22;1.52;;;8.00;99.90;;;;;;5092836;28;20029;-74
2021/01/25 10:05:05;;;;;;;3.13;2.28;;;8.00;99.90;;;;;;5093395;28;20024;-75
2021/01/25 10:07:34;;;;;;;3.45;1.40;;;8.10;99.90;;;;;;5087050;28;20035;-74
2021/01/25 10:10:27;;;;;;;4.30;1.90;;;8.20;99.90;;;;;;5082159;28;20025;-75
2021/01/25 10:12:54;;;;;;;4.95;1.48;;;8.10;99.90;;;;;;5085309;28;20025;-75
2021/01/25 10:15:20;;;;;;;1.58;1.35;;;8.30;99.90;;;;;;5092616;28;20012;-75
2021/01/25 10:17:46;;;;;;;1.70;1.60;;;8.40;99.90;;;;;;5080708;28;20051;-75
2021/01/25 10:20:13;;;;;;;1.45;1.23;;;8.50;99.90;;;;;;5084984;28;20036;-75
2021/01/25 10:22:40;;;;;;;1.95;1.60;;;8.50;99.90;;;;;;5069195;28;20041;-76
2021/01/25 10:25:07;;;;;;;1.88;1.77;;;8.40;99.90;;;;;;5071676;28;20029;-75
2021/01/25 10:27:35;;;;;;;3.00;1.42;;;8.50;99.90;;;;;;5063889;28;20045;-76
2021/01/25 10:30:01;;;;;;;1.55;1.40;;;8.50;99.90;;;;;;5068236;28;20109;-75
2021/01/25 10:32:27;;;;;;;2.13;1.40;;;8.40;99.90;;;;;;5072394;28;20025;-76
2021/01/25 10:34:53;;;;;;;3.83;1.55;;;8.40;99.90;;;;;;5074847;28;20027;-76
2021/01/25 10:37:20;;;;;;;2.25;1.73;;;8.50;99.90;;;;;;5072440;28;20032;-75
2021/01/25 10:39:46;;;;;;;2.63;1.17;;;8.50;99.90;;;;;;5068414;28;20056;-75
2021/01/25 10:42:12;;;;;;;3.38;1.85;;;8.50;99.90;;;;;;5072851;28;20052;-75
2021/01/25 10:44:38;;;;;;;1.90;1.20;;;8.40;99.90;;;;;;5075406;28;20071;-74
2021/01/25 10:47:04;;;;;;;3.65;1.73;;;8.50;99.90;;;;;;5071501;28;20027;-78
2021/01/25 10:49:33;;;;;;;1.50;1.40;;;8.60;99.90;;;;;;5088492;28;20622;-75
2021/01/25 10:51:59;;;;;;;2.00;1.27;;;8.70;99.90;;;;;;5075035;28;20051;-75
2021/01/25 10:54:25;;;;;;;3.10;1.55;;;8.70;99.90;;;;;;5084874;28;20025;-75
2021/01/25 10:56:52;;;;;;;1.88;1.27;;;8.70;99.90;;;;;;5059539;28;20167;-75
2021/01/25 10:59:18;;;;;;;2.20;1.45;;;8.70;99.90;;;;;;5071729;28;20025;-74
2021/01/25 11:01:44;;;;;;;3.22;1.55;;;8.50;99.90;;;;;;5067284;28;20024;-75
2021/01/25 11:04:10;;;;;;;1.25;1.15;;;8.50;99.90;;;;;;5070467;28;20029;-77
2021/01/25 11:06:36;;;;;;;1.98;1.20;;;8.50;99.90;;;;;;5079044;28;20526;-76
2021/01/25 11:09:02;;;;;;;2.67;1.60;;;8.70;99.90;;;;;;5068389;28;20040;-76
2021/01/25 11:11:28;;;;;;;2.10;1.33;;;8.80;99.90;;;;;;5066425;28;20099;-75
2021/01/25 11:13:54;;;;;;;1.90;1.23;;;8.70;99.90;;;;;;5062951;28;20088;-75
2021/01/25 11:16:20;;;;;;;3.83;1.25;;;8.80;99.90;;;;;;5073039;28;20055;-74
2021/01/25 11:18:47;;;;;;;1.75;1.40;;;9.00;99.90;;;;;;5075089;28;20037;-76
2021/01/25 11:21:13;;;;;;;2.05;1.73;;;9.20;99.90;;;;;;5078207;28;20024;-75
2021/01/25 11:23:39;;;;;;;1.88;1.55;;;9.20;99.90;;;;;;5064733;28;20502;-74
2021/01/25 11:26:05;;;;;;;2.30;1.40;;;9.10;99.90;;;;;;5082169;28;20020;-76
2021/01/25 11:28:31;;;;;;;1.75;1.05;;;9.10;99.90;;;;;;5073926;28;20032;-76
2021/01/25 11:30:57;;;;;;;3.65;1.80;;;9.00;99.90;;;;;;5077750;28;20509;-78
2021/01/25 11:33:22;;;;;;;2.33;1.27;;;8.80;99.90;;;;;;5064946;28;20505;-76
2021/01/25 11:35:48;;;;;;;1.67;1.38;;;8.80;99.90;;;;;;5072460;28;20043;-76
2021/01/25 11:38:14;;;;;;;5.35;1.65;;;8.70;99.90;;;;;;5064942;28;20147;-76
2021/01/25 11:40:40;;;;;;;2.08;1.80;;;8.90;99.90;;;;;;5063738;28;20437;-76
2021/01/25 11:43:06;;;;;;;2.42;1.70;;;9.20;99.90;;;;;;5060139;28;20024;-76
2021/01/25 11:45:32;;;;;;;3.83;3.38;;;9.20;99.90;;;;;;5068795;28;20509;-76
2021/01/25 11:47:58;;;;;;;1.10;1.00;;;9.20;99.90;;;;;;5066355;28;20020;-76
2021/01/25 11:50:23;;;;;;;1.63;1.10;;;9.20;99.90;;;;;;5064115;28;20025;-76
2021/01/25 11:52:49;;;;;;;1.65;1.35;;;9.10;99.90;;;;;;5066700;28;20040;-76
2021/01/25 11:55:15;;;;;;;1.25;1.02;;;9.20;99.90;;;;;;5062556;28;20083;-76
2021/01/25 11:57:41;;;;;;;2.13;1.23;;;9.50;99.90;;;;;;5063333;28;20092;-76
2021/01/25 12:00:08;;;;;;;0.80;0.80;;;9.80;99.90;;;;;;5063928;28;20402;-76
2021/01/25 12:02:34;;;;;;;2.90;1.25;;;10.10;99.90;;;;;;5061261;28;20043;-76
2021/01/25 12:05:00;;;;;;;5.35;1.65;;;10.10;99.90;;;;;;5070698;28;20078;-76
2021/01/25 12:07:26;;;;;;;3.55;1.13;;;10.30;99.90;;;;;;5060568;28;20029;-77
2021/01/25 12:09:52;;;;;;;3.15;1.83;;;10.40;99.90;;;;;;5073402;28;20036;-76
2021/01/25 12:12:18;;;;;;;2.55;1.75;;;10.40;99.90;;;;;;5075068;28;20020;-76
2021/01/25 12:14:44;;;;;;;2.30;1.30;;;10.30;99.90;;;;;;5084311;28;20230;-76
2021/01/25 12:17:09;;;;;;;2.55;1.35;;;10.00;99.90;;;;;;5072952;28;20040;-76
2021/01/25 12:19:36;;;;;;;2.47;1.38;;;10.00;99.90;;;;;;5058171;28;20031;-76
2021/01/25 12:22:03;;;;;;;2.10;1.45;;;10.10;99.90;;;;;;5063642;28;20052;-77
2021/01/25 12:24:29;;;;;;;2.60;1.58;;;10.00;99.90;;;;;;5073987;28;20025;-76
2021/01/25 12:26:54;;;;;;;1.23;1.05;;;10.00;99.90;;;;;;5067117;28;20136;-76
2021/01/25 12:29:20;;;;;;;3.67;1.42;;;9.80;99.90;;;;;;5059899;28;20056;-76
2021/01/25 12:31:46;;;;;;;2.97;1.30;;;9.70;99.90;;;;;;5073266;28;20012;-76
2021/01/25 12:34:12;;;;;;;1.75;1.38;;;9.70;99.90;;;;;;5087896;28;20040;-77
2021/01/25 12:36:38;;;;;;;3.80;1.52;;;9.80;99.90;;;;;;5077298;28;20029;-75
2021/01/25 12:39:05;;;;;;;7.80;1.92;;;10.00;99.90;;;;;;5064353;28;20034;-75
2021/01/25 12:41:31;;;;;;;6.30;1.15;;;9.80;99.90;;;;;;5067145;28;20041;-76
2021/01/25 12:43:57;;;;;;;2.65;1.38;;;9.70;99.90;;;;;;5063944;28;20020;-76
2021/01/25 12:46:23;;;;;;;2.45;1.23;;;9.50;99.90;;;;;;5064124;28;20021;-76
2021/01/25 12:48:49;;;;;;;2.38;1.15;;;9.40;99.90;;;;;;5066910;28;20024;-76
2021/01/25 12:51:15;;;;;;;2.28;1.33;;;9.40;99.90;;;;;;5064852;28;20024;-76
2021/01/25 12:53:41;;;;;;;4.00;2.80;;;9.40;99.90;;;;;;5057019;28;20029;-76
2021/01/25 12:56:07;;;;;;;3.17;1.67;;;9.30;99.90;;;;;;5069980;28;20029;-76
2021/01/25 12:58:33;;;;;;;3.00;1.52;;;9.20;99.90;;;;;;5082738;28;20078;-76